Time;durP1;ratioP1;P1;durP2;ratioP2;P2;SDS_P1;SDS_P2;PMS_P1;PMS_P2;Temp;Humidity;BMP_temperature;BMP_pressure;BME280_temperature;BME280_humidity;BME280_pressure;Samples;Min_cycle;Max_cycle;Signal;HPM_P1;HPM_P2
2023/03/12 00:00:44;;;;;;;;;12.00;12.00;;;;;13.31;100.00;100809.50;4982037;28;46510;-73
2023/03/12 00:03:09;;;;;;;;;18.67;14.33;;;;;13.37;100.00;100806.16;4995264;28;45610;-74
2023/03/12 00:05:39;;;;;;;;;12.67;11.00;;;;;13.47;100.00;100812.31;4981108;28;47189;-74
2023/03/12 00:08:05;;;;;;;;;12.33;11.33;;;;;13.58;100.00;100817.47;4982388;28;45469;-73
2023/03/12 00:10:31;;;;;;;;;15.00;14.67;;;;;13.59;100.00;100814.56;4982157;28;45466;-74
2023/03/12 00:12:57;;;;;;;;;14.00;10.33;;;;;13.64;100.00;100817.66;5014195;28;45518;-74
2023/03/12 00:15:23;;;;;;;;;15.33;12.33;;;;;13.69;100.00;100808.09;4981595;28;45810;-74
2023/03/12 00:17:48;;;;;;;;;15.67;15.67;;;;;13.60;100.00;100815.41;4982030;28;45450;-74
2023/03/12 00:20:14;;;;;;;;;15.33;14.00;;;;;13.45;100.00;100782.44;4984445;28;45383;-74
2023/03/12 00:22:39;;;;;;;;;14.33;13.67;;;;;13.48;100.00;100798.50;5017430;28;45685;-74
2023/03/12 00:25:10;;;;;;;;;17.33;11.67;;;;;13.53;100.00;100807.03;4983537;28;46613;-74
2023/03/12 00:27:35;;;;;;;;;18.00;17.00;;;;;13.62;100.00;100802.47;4989779;28;45551;-74
2023/03/12 00:30:01;;;;;;;;;13.67;11.33;;;;;13.62;100.00;100794.25;4984140;28;45381;-74
2023/03/12 00:32:26;;;;;;;;;11.00;10.67;;;;;13.70;100.00;100783.38;4979082;28;45490;-74
2023/03/12 00:34:54;;;;;;;;;14.00;10.33;;;;;13.84;100.00;100785.44;5017648;28;46274;-74
2023/03/12 00:37:19;;;;;;;;;13.33;13.00;;;;;13.75;100.00;100785.59;4979842;28;45352;-74
2023/03/12 00:39:45;;;;;;;;;12.67;12.67;;;;;13.54;100.00;100781.44;4985256;28;45484;-74
2023/03/12 00:42:10;;;;;;;;;11.00;11.00;;;;;13.56;100.00;100773.09;4988818;28;45380;-74
2023/03/12 00:44:35;;;;;;;;;11.33;10.67;;;;;13.42;100.00;100787.38;4985250;28;45344;-74
2023/03/12 00:47:01;;;;;;;;;15.33;15.33;;;;;13.42;100.00;100798.31;4984684;28;45200;-74
2023/03/12 00:49:26;;;;;;;;;11.33;11.33;;;;;13.56;100.00;100803.13;4985575;28;45327;-74
2023/03/12 00:51:52;;;;;;;;;12.33;12.33;;;;;13.63;100.00;100802.28;4984969;28;45435;-74
2023/03/12 00:54:18;;;;;;;;;4.67;3.67;;;;;13.54;100.00;100819.66;4985343;28;45472;-74
2023/03/12 00:56:45;;;;;;;;;12.00;9.67;;;;;13.46;100.00;100821.50;4980388;28;47895;-74
2023/03/12 00:59:11;;;;;;;;;12.33;11.33;;;;;13.56;100.00;100833.16;4979838;28;45424;-74
2023/03/12 01:01:36;;;;;;;;;16.33;11.00;;;;;13.68;100.00;100826.34;4984562;28;45393;-74
2023/03/12 01:04:01;;;;;;;;;12.33;9.33;;;;;13.74;100.00;100824.81;4983649;28;46820;-74
2023/03/12 01:06:27;;;;;;;;;6.67;6.67;;;;;13.61;100.00;100817.13;4984241;28;45526;-74
2023/03/12 01:08:54;;;;;;;;;15.33;12.00;;;;;13.52;100.00;100812.66;4983613;28;45402;-74
2023/03/12 01:11:20;;;;;;;;;16.33;10.00;;;;;13.46;100.00;100818.78;4985013;28;45233;-74
2023/03/12 01:13:45;;;;;;;;;11.00;8.33;;;;;13.49;100.00;100823.91;4984814;28;45408;-74
2023/03/12 01:16:11;;;;;;;;;6.67;6.67;;;;;13.46;100.00;100818.78;4984179;28;45465;-74
2023/03/12 01:18:36;;;;;;;;;16.67;11.00;;;;;13.47;100.00;100831.41;4984914;28;45483;-74
2023/03/12 01:21:02;;;;;;;;;18.00;15.00;;;;;13.36;100.00;100829.00;4984746;28;45652;-74
2023/03/12 01:23:28;;;;;;;;;17.00;15.00;;;;;13.37;100.00;100826.06;4993340;28;46479;-74
2023/03/12 01:25:54;;;;;;;;;10.00;10.00;;;;;13.43;100.00;100835.50;4975423;28;45364;-74
2023/03/12 01:28:23;;;;;;;;;16.00;13.33;;;;;13.49;100.00;100834.84;5016418;28;45386;-74
2023/03/12 01:30:49;;;;;;;;;16.67;11.00;;;;;13.51;100.00;100827.34;4983217;28;45321;-74
2023/03/12 01:33:15;;;;;;;;;12.00;11.67;;;;;13.41;100.00;100832.94;4987253;28;48063;-74
2023/03/12 01:35:41;;;;;;;;;12.67;10.00;;;;;13.50;100.00;100837.41;4982555;28;45258;-74
2023/03/12 01:38:10;;;;;;;;;15.67;14.33;;;;;13.37;100.00;100826.06;4984268;28;45415;-74
2023/03/12 01:40:36;;;;;;;;;11.33;10.33;;;;;13.47;100.00;100834.13;4984422;28;45274;-74
2023/03/12 01:43:37;;;;;;;;;11.67;11.67;;;;;13.56;100.00;100835.88;4984010;28;46241;-74
2023/03/12 01:46:23;;;;;;;;;9.33;9.33;;;;;13.69;100.00;100829.94;4985883;28;45504;-74
2023/03/12 01:49:14;;;;;;;;;11.00;9.67;;;;;13.60;100.00;100831.78;4974681;28;45357;-74
2023/03/12 01:51:56;;;;;;;;;6.33;6.33;;;;;13.61;100.00;100822.59;4967868;28;45554;-74
2023/03/12 01:54:31;;;;;;;;;11.67;10.00;;;;;13.47;100.00;100823.22;4979847;28;46993;-74
2023/03/12 01:56:57;;;;;;;;;11.33;9.00;;;;;13.45;100.00;100814.34;4967368;28;45400;-74
2023/03/12 01:59:29;;;;;;;;;10.00;10.00;;;;;13.36;100.00;100823.53;4964475;28;45509;-74
2023/03/12 02:01:54;;;;;;;;;12.67;10.67;;;;;13.34;100.00;100820.09;4963978;28;45537;-74
2023/03/12 02:04:22;;;;;;;;;9.00;8.00;;;;;13.39;100.00;100821.31;4963182;28;46359;-74
2023/03/12 02:06:56;;;;;;;;;10.67;9.00;;;;;13.27;100.00;100811.72;4964290;28;45329;-74
2023/03/12 02:09:23;;;;;;;;;11.00;9.33;;;;;13.27;100.00;100814.47;4964564;28;45390;-74
2023/03/12 02:11:48;;;;;;;;;13.33;10.00;;;;;13.31;100.00;100809.50;4964557;28;45410;-74
2023/03/12 02:14:13;;;;;;;;;11.33;8.00;;;;;13.34;100.00;100806.47;4964036;28;46054;-74
2023/03/12 02:16:39;;;;;;;;;10.00;10.00;;;;;13.32;100.00;100808.50;4963647;28;45401;-74
2023/03/12 02:19:15;;;;;;;;;11.00;10.33;;;;;13.31;100.00;100804.06;4977516;28;45486;-74
2023/03/12 02:21:41;;;;;;;;;9.00;9.00;;;;;13.30;100.00;100810.53;4964448;28;45369;-74
2023/03/12 02:24:16;;;;;;;;;9.67;9.67;;;;;13.28;100.00;100812.59;4964095;28;46351;-74
2023/03/12 02:26:41;;;;;;;;;6.00;5.00;;;;;13.07;100.00;100807.50;4962391;28;45394;-74
2023/03/12 02:29:09;;;;;;;;;12.67;9.33;;;;;13.15;100.00;100821.22;4963542;28;45200;-74
2023/03/12 02:31:42;;;;;;;;;11.00;6.67;;;;;13.22;100.00;100819.56;4977881;28;45602;-74
2023/03/12 02:34:08;;;;;;;;;8.33;8.00;;;;;13.22;100.00;100817.66;4964192;28;46190;-74
2023/03/12 02:36:33;;;;;;;;;9.67;6.33;;;;;13.13;100.00;100810.47;4963344;28;45475;-74
2023/03/12 02:38:59;;;;;;;;;11.33;5.00;;;;;13.14;100.00;100819.53;4961884;28;45459;-74
2023/03/12 02:41:35;;;;;;;;;9.00;5.33;;;;;13.21;100.00;100831.47;4963985;28;45727;-74
2023/03/12 02:44:06;;;;;;;;;15.33;9.33;;;;;13.20;100.00;100837.94;4964156;28;45607;-74
2023/03/12 02:46:37;;;;;;;;;8.33;7.67;;;;;13.32;100.00;100835.78;4962948;28;45407;-74
2023/03/12 02:49:03;;;;;;;;;6.67;5.00;;;;;13.42;100.00;100833.78;4962876;28;45493;-73
2023/03/12 02:51:28;;;;;;;;;15.00;11.33;;;;;13.42;100.00;100833.78;4979139;28;45388;-74
2023/03/12 02:53:53;;;;;;;;;11.00;8.33;;;;;13.43;100.00;100830.03;4983128;28;45817;-74
2023/03/12 02:56:24;;;;;;;;;11.33;9.33;;;;;13.46;100.00;100829.69;4982922;28;45325;-74
2023/03/12 02:58:50;;;;;;;;;10.33;8.67;;;;;13.27;100.00;100835.44;4974598;28;45563;-73
2023/03/12 03:01:16;;;;;;;;;16.33;9.33;;;;;13.31;100.00;100836.78;5014685;28;45608;-74
2023/03/12 03:03:42;;;;;;;;;10.33;9.67;;;;;13.23;100.00;100843.94;4983234;28;45604;-74
2023/03/12 03:06:08;;;;;;;;;9.00;6.00;;;;;13.44;100.00;100845.41;4982715;28;45381;-74
2023/03/12 03:08:33;;;;;;;;;9.33;8.00;;;;;13.49;100.00;100834.84;4983048;28;45572;-74
2023/03/12 03:11:01;;;;;;;;;15.33;9.33;;;;;13.61;100.00;100844.41;4982755;28;45242;-74
2023/03/12 03:13:27;;;;;;;;;10.67;8.00;;;;;13.75;100.00;100842.91;4981974;28;46638;-74
2023/03/12 03:15:53;;;;;;;;;8.67;7.33;;;;;13.72;100.00;100841.41;4982121;28;45443;-74
2023/03/12 03:18:18;;;;;;;;;11.00;9.33;;;;;13.69;100.00;100836.25;4981786;28;45395;-74
2023/03/12 03:20:43;;;;;;;;;17.00;10.00;;;;;13.73;100.00;100839.53;4982756;28;45681;-74
2023/03/12 03:23:09;;;;;;;;;9.67;8.33;;;;;13.70;100.00;100837.97;4981707;28;47275;-74
2023/03/12 03:25:34;;;;;;;;;8.00;8.00;;;;;13.56;100.00;100846.81;4981426;28;45569;-74
2023/03/12 03:28:00;;;;;;;;;18.00;11.67;;;;;13.47;100.00;100853.25;4982870;28;45390;-74
2023/03/12 03:30:25;;;;;;;;;14.00;9.00;;;;;13.44;100.00;100856.31;4982552;28;45543;-74
2023/03/12 03:32:50;;;;;;;;;10.00;8.67;;;;;13.50;100.00;100855.66;4983008;28;45472;-74
2023/03/12 03:35:16;;;;;;;;;11.67;5.67;;;;;13.56;100.00;100865.91;4982940;28;45679;-74
2023/03/12 03:37:42;;;;;;;;;10.00;10.00;;;;;13.42;100.00;100864.66;5014321;28;45437;-74
2023/03/12 03:40:11;;;;;;;;;11.33;8.00;;;;;13.40;100.00;100869.44;4983353;28;45315;-74
2023/03/12 03:42:37;;;;;;;;;10.33;9.00;;;;;13.47;100.00;100864.16;4982009;28;45436;-74
2023/03/12 03:45:02;;;;;;;;;11.00;8.00;;;;;13.39;100.00;100864.97;4982712;28;45304;-74
2023/03/12 03:47:28;;;;;;;;;4.33;4.33;;;;;13.33;100.00;100856.59;4982056;28;46239;-74
2023/03/12 03:49:53;;;;;;;;;7.67;5.00;;;;;13.33;100.00;100852.00;4983095;28;45501;-74
2023/03/12 03:52:18;;;;;;;;;13.67;8.67;;;;;13.37;100.00;100864.28;4981950;28;45691;-74
2023/03/12 03:54:43;;;;;;;;;9.33;5.00;;;;;13.34;100.00;100869.22;4979473;28;45454;-74
2023/03/12 03:57:09;;;;;;;;;10.33;9.00;;;;;13.21;100.00;100878.72;4985819;28;45376;-73
2023/03/12 03:59:34;;;;;;;;;11.00;8.00;;;;;13.30;100.00;100873.28;4986710;28;45365;-74
2023/03/12 04:02:01;;;;;;;;;9.00;6.33;;;;;13.30;100.00;100873.28;4985162;28;45494;-74
2023/03/12 04:04:26;;;;;;;;;10.33;6.33;;;;;13.25;100.00;100879.25;5018116;28;45335;-74
2023/03/12 04:06:51;;;;;;;;;9.33;7.00;;;;;13.21;100.00;100881.44;4985515;28;45503;-74
2023/03/12 04:09:17;;;;;;;;;8.00;8.00;;;;;13.34;100.00;100885.59;4986501;28;45436;-74
2023/03/12 04:11:42;;;;;;;;;10.00;6.33;;;;;13.15;100.00;100892.97;4983928;28;48087;-74
2023/03/12 04:14:07;;;;;;;;;11.33;7.67;;;;;13.24;100.00;100915.72;4986093;28;45371;-74
2023/03/12 04:16:33;;;;;;;;;9.33;8.00;;;;;13.04;100.00;100917.78;4984920;28;45395;-74
2023/03/12 04:18:58;;;;;;;;;10.67;8.33;;;;;13.12;100.00;100912.38;5018193;28;45326;-74
2023/03/12 04:21:23;;;;;;;;;11.33;6.33;;;;;13.14;100.00;100913.13;4984915;28;45854;-74
2023/03/12 04:23:49;;;;;;;;;10.00;8.00;;;;;13.20;100.00;100915.22;5017168;28;45816;-74
2023/03/12 04:26:14;;;;;;;;;12.33;8.33;;;;;13.01;100.00;100906.31;4983577;28;45594;-74
2023/03/12 04:28:39;;;;;;;;;10.67;5.33;;;;;13.07;100.00;100920.22;4986036;28;45599;-74
2023/03/12 04:31:06;;;;;;;;;9.33;6.33;;;;;13.09;100.00;100926.34;4975540;28;46721;-74
2023/03/12 04:33:35;;;;;;;;;15.33;9.00;;;;;12.95;100.00;100926.06;4985224;28;45242;-74
2023/03/12 04:36:00;;;;;;;;;9.00;7.33;;;;;12.91;100.00;100932.88;4982599;28;45530;-72
2023/03/12 04:38:26;;;;;;;;;9.00;7.00;;;;;12.93;100.00;100920.75;4986016;28;45442;-74
2023/03/12 04:40:58;;;;;;;;;3.67;2.67;;;;;13.20;100.00;100942.50;4982278;28;47720;-74
2023/03/12 04:43:24;;;;;;;;;6.33;6.33;;;;;13.15;100.00;100941.25;4985243;28;45358;-74
2023/03/12 04:45:49;;;;;;;;;8.00;5.00;;;;;13.19;100.00;100948.09;4983540;28;45329;-74
2023/03/12 04:48:14;;;;;;;;;6.67;5.67;;;;;13.32;100.00;100953.13;4994943;28;45359;-74
2023/03/12 04:50:40;;;;;;;;;13.67;8.33;;;;;13.24;100.00;100954.78;4983344;28;46367;-74
2023/03/12 04:53:05;;;;;;;;;10.67;5.00;;;;;13.24;100.00;100949.31;4985249;28;45455;-74
2023/03/12 04:55:30;;;;;;;;;7.67;5.67;;;;;13.29;100.00;100957.03;4985136;28;45300;-74
2023/03/12 04:57:56;;;;;;;;;5.33;3.00;;;;;13.03;100.00;100967.91;5017137;28;46517;-74
2023/03/12 05:00:21;;;;;;;;;15.33;6.00;;;;;13.13;100.00;100963.25;4984770;28;45469;-72
2023/03/12 05:02:47;;;;;;;;;6.33;5.67;;;;;13.19;100.00;100938.03;4984455;28;45549;-72
2023/03/12 05:05:12;;;;;;;;;9.33;5.00;;;;;13.23;100.00;100950.34;4985269;28;45914;-73
2023/03/12 05:07:37;;;;;;;;;7.33;5.33;;;;;13.35;100.00;100952.81;4979385;28;45632;-74
2023/03/12 05:10:03;;;;;;;;;10.67;7.33;;;;;13.38;100.00;100966.97;5017677;28;47293;-72
2023/03/12 05:12:28;;;;;;;;;8.00;5.00;;;;;13.47;100.00;100973.34;4986605;28;45410;-73
2023/03/12 05:14:54;;;;;;;;;11.67;5.67;;;;;13.55;100.00;100970.66;4986014;28;45336;-73
2023/03/12 05:17:19;;;;;;;;;7.67;3.67;;;;;13.49;100.00;100957.66;4983301;28;45424;-73
2023/03/12 05:19:45;;;;;;;;;9.33;5.00;;;;;13.52;100.00;100979.16;4983894;28;46867;-73
2023/03/12 05:22:10;;;;;;;;;8.67;6.67;;;;;13.50;100.00;100978.50;4984357;28;45193;-73
2023/03/12 05:24:35;;;;;;;;;10.33;6.67;;;;;13.59;100.00;100982.94;4984787;28;45242;-73
2023/03/12 05:27:01;;;;;;;;;10.33;4.67;;;;;13.59;100.00;100985.69;4984786;28;45368;-73
2023/03/12 05:29:26;;;;;;;;;12.00;5.33;;;;;13.79;100.00;100984.44;4985553;28;48319;-73
2023/03/12 05:31:51;;;;;;;;;11.00;5.33;;;;;13.68;100.00;100994.78;4997236;28;46422;-73
2023/03/12 05:34:17;;;;;;;;;15.67;8.00;;;;;13.47;100.00;100985.13;4985101;28;45357;-72
2023/03/12 05:36:42;;;;;;;;;4.67;4.00;;;;;13.63;100.00;101001.59;4984353;28;45364;-72
2023/03/12 05:39:08;;;;;;;;;11.67;6.00;;;;;13.74;100.00;101003.19;4984622;28;46274;-72
2023/03/12 05:41:33;;;;;;;;;10.33;4.67;;;;;13.74;100.00;101005.03;4984146;28;45557;-73
2023/03/12 05:43:58;;;;;;;;;6.00;4.67;;;;;13.83;100.00;101007.66;5016254;28;45709;-73
2023/03/12 05:46:26;;;;;;;;;10.33;4.00;;;;;13.88;100.00;101008.03;4984001;28;45427;-73
2023/03/12 05:48:51;;;;;;;;;5.00;4.33;;;;;13.78;100.00;101006.44;4984258;28;45330;-73
2023/03/12 05:51:16;;;;;;;;;4.33;4.33;;;;;13.88;100.00;101004.47;4978580;28;45304;-73
2023/03/12 05:53:42;;;;;;;;;12.00;6.00;;;;;13.59;100.00;101010.25;5015363;28;45513;-73
2023/03/12 05:56:11;;;;;;;;;10.00;6.00;;;;;13.85;100.00;101011.09;5015043;28;45475;-73
2023/03/12 05:58:36;;;;;;;;;8.67;5.00;;;;;13.99;100.00;101015.94;4984159;28;45601;-72
2023/03/12 06:01:03;;;;;;;;;4.00;4.00;;;;;13.74;100.00;101008.63;4983475;28;45555;-73
2023/03/12 06:03:29;;;;;;;;;9.67;4.33;;;;;13.95;100.00;101017.28;4999610;28;45355;-73
2023/03/12 06:05:55;;;;;;;;;7.33;5.00;;;;;13.95;100.00;101011.00;4984015;28;45329;-73
2023/03/12 06:08:21;;;;;;;;;5.67;4.67;;;;;13.83;100.00;101029.50;4984053;28;46577;-73
2023/03/12 06:10:48;;;;;;;;;10.00;6.33;;;;;13.91;100.00;101021.38;4983380;28;45498;-73
2023/03/12 06:13:14;;;;;;;;;4.67;3.00;;;;;13.80;100.00;101035.31;4983954;28;45292;-74
2023/03/12 06:15:39;;;;;;;;;6.00;5.33;;;;;13.78;100.00;101025.56;4983838;28;45255;-73
2023/03/12 06:18:04;;;;;;;;;6.67;5.00;;;;;13.78;100.00;101041.94;4982779;28;45311;-73
2023/03/12 06:20:30;;;;;;;;;12.00;5.00;;;;;13.68;100.00;101036.59;4982317;28;45517;-73
2023/03/12 06:22:55;;;;;;;;;12.00;7.33;;;;;13.78;100.00;101033.75;4983614;28;46237;-73
2023/03/12 06:25:20;;;;;;;;;7.67;7.67;;;;;13.79;100.00;101030.88;4984185;28;45308;-73
2023/03/12 06:27:46;;;;;;;;;4.67;4.67;;;;;13.78;100.00;101031.88;4982864;28;45345;-73
2023/03/12 06:30:12;;;;;;;;;12.33;7.33;;;;;13.56;100.00;101018.78;4983611;28;45435;-73
2023/03/12 06:32:37;;;;;;;;;12.33;6.00;;;;;13.52;100.00;101026.44;4977881;28;45197;-73
2023/03/12 06:35:04;;;;;;;;;4.00;4.00;;;;;13.57;100.00;101035.00;4984485;28;45249;-73
2023/03/12 06:37:30;;;;;;;;;9.00;4.33;;;;;13.77;100.00;101038.38;4982037;28;46500;-73
2023/03/12 06:39:55;;;;;;;;;10.33;8.00;;;;;13.92;100.00;101039.47;4983747;28;45351;-73
2023/03/12 06:42:21;;;;;;;;;12.67;8.67;;;;;13.85;100.00;101032.09;4982582;28;45531;-73
2023/03/12 06:44:46;;;;;;;;;10.67;6.33;;;;;13.94;100.00;101031.13;4982208;28;45336;-72
2023/03/12 06:47:12;;;;;;;;;10.67;5.00;;;;;13.90;100.00;101027.00;4982575;28;45207;-72
2023/03/12 06:49:37;;;;;;;;;7.00;6.67;;;;;14.07;100.00;101045.19;4983303;28;45544;-73
2023/03/12 06:52:04;;;;;;;;;9.00;4.33;;;;;14.03;100.00;101051.97;5014514;28;45537;-73
2023/03/12 06:54:29;;;;;;;;;13.00;5.33;;;;;13.96;100.00;101062.69;4982493;28;45350;-73
2023/03/12 06:56:55;;;;;;;;;15.67;10.00;;;;;14.03;100.00;101074.69;4982746;28;46222;-75
2023/03/12 06:59:21;;;;;;;;;10.00;7.67;;;;;14.10;100.00;101066.69;4982033;28;45845;-73
2023/03/12 07:01:47;;;;;;;;;5.00;5.00;;;;;13.90;100.00;101073.41;4982561;28;45391;-73
2023/03/12 07:04:13;;;;;;;;;6.33;4.00;;;;;14.02;100.00;101072.16;4983105;28;45367;-73
2023/03/12 07:06:38;;;;;;;;;9.00;5.00;;;;;14.13;100.00;101066.38;4981996;28;45440;-73
2023/03/12 07:09:04;;;;;;;;;9.67;5.00;;;;;14.16;100.00;101067.94;4983399;28;45280;-73
2023/03/12 07:11:29;;;;;;;;;10.33;6.00;;;;;14.01;100.00;101076.75;4982788;28;45492;-73
2023/03/12 07:13:55;;;;;;;;;13.33;8.00;;;;;14.26;100.00;101068.66;4983723;28;45565;-75
2023/03/12 07:16:20;;;;;;;;;6.33;6.00;;;;;14.34;100.00;101058.59;4982341;28;45696;-73
2023/03/12 07:18:45;;;;;;;;;7.00;5.00;;;;;14.46;100.00;101063.81;4983280;28;45273;-73
2023/03/12 07:21:11;;;;;;;;;9.33;5.00;;;;;14.51;100.00;101066.91;4982308;28;46362;-73
2023/03/12 07:23:36;;;;;;;;;5.67;4.67;;;;;14.43;100.00;101086.00;4982769;28;45676;-73
2023/03/12 07:26:04;;;;;;;;;9.00;5.00;;;;;14.29;100.00;101074.66;4982438;28;46357;-73
2023/03/12 07:28:29;;;;;;;;;13.00;5.67;;;;;14.26;100.00;101063.19;4982655;28;45306;-73
2023/03/12 07:31:00;;;;;;;;;3.33;3.00;;;;;14.09;100.00;101072.34;4985727;28;45423;-73
2023/03/12 07:33:25;;;;;;;;;3.33;3.33;;;;;14.30;100.00;101072.78;4987089;28;45491;-73
2023/03/12 07:35:50;;;;;;;;;9.33;5.00;;;;;14.21;100.00;101087.41;4983926;28;47210;-73
2023/03/12 07:38:16;;;;;;;;;12.00;7.33;;;;;14.04;100.00;101109.19;4998566;28;45332;-73
2023/03/12 07:40:41;;;;;;;;;8.67;6.00;;;;;14.17;100.00;101116.09;4985660;28;45344;-73
2023/03/12 07:43:10;;;;;;;;;11.33;3.00;;;;;14.15;100.00;101110.81;4986511;28;45379;-73
2023/03/12 07:45:37;;;;;;;;;14.00;9.00;;;;;14.25;100.00;101107.94;4984975;28;47556;-72
2023/03/12 07:48:02;;;;;;;;;10.00;5.00;;;;;14.39;100.00;101121.88;4982376;28;45583;-73
2023/03/12 07:50:28;;;;;;;;;8.67;5.67;;;;;14.71;100.00;101117.56;4983895;28;45524;-73
2023/03/12 07:52:53;;;;;;;;;11.00;5.00;;;;;14.41;100.00;101113.50;4986138;28;45458;-74
2023/03/12 07:55:18;;;;;;;;;9.67;5.33;;;;;14.82;100.00;101108.19;4985911;28;45462;-73
2023/03/12 07:57:44;;;;;;;;;9.67;5.33;;;;;14.79;100.00;101112.97;4985131;28;45303;-73
2023/03/12 08:00:10;;;;;;;;;9.33;6.00;;;;;15.28;100.00;101107.56;4985119;28;46179;-73
2023/03/12 08:02:36;;;;;;;;;12.33;6.67;;;;;15.50;100.00;101106.03;5000804;28;45548;-74
2023/03/12 08:05:01;;;;;;;;;5.00;4.67;;;;;15.53;100.00;101098.38;4985967;28;45859;-73
2023/03/12 08:07:31;;;;;;;;;10.00;7.00;;;;;15.80;100.00;101091.66;4985103;28;45406;-74
2023/03/12 08:09:59;;;;;;;;;10.67;4.00;;;;;16.13;100.00;101084.22;4985467;28;45423;-74
2023/03/12 08:12:25;;;;;;;;;12.67;6.67;;;;;15.84;100.00;101120.44;4985885;28;45457;-74
2023/03/12 08:14:51;;;;;;;;;12.00;6.00;;;;;15.88;100.00;101109.97;4985219;28;45350;-74
2023/03/12 08:17:16;;;;;;;;;3.67;1.00;;;;;15.61;100.00;101093.91;4984664;28;53630;-74
2023/03/12 08:19:41;;;;;;;;;6.00;4.00;;;;;15.95;100.00;101097.28;5017437;28;45347;-74
2023/03/12 08:22:07;;;;;;;;;10.00;6.67;;;;;15.74;100.00;101118.88;4985605;28;45537;-74
2023/03/12 08:24:34;;;;;;;;;10.33;4.67;;;;;15.53;100.00;101100.25;4985683;28;46291;-73
2023/03/12 08:26:59;;;;;;;;;13.00;6.00;;;;;15.74;100.00;101105.19;4985131;28;45226;-74
2023/03/12 08:29:25;;;;;;;;;9.67;5.67;;;;;15.33;100.00;101126.25;4984734;28;46417;-74
2023/03/12 08:31:50;;;;;;;;;11.67;6.00;;;;;15.35;100.00;101122.28;4985392;28;45344;-74
2023/03/12 08:34:16;;;;;;;;;8.33;5.00;;;;;15.51;100.00;101125.03;4985321;28;45527;-73
2023/03/12 08:36:41;;;;;;;;;10.67;6.33;;;;;15.25;100.00;101127.09;4991795;28;45400;-76
2023/03/12 08:39:06;;;;;;;;;8.67;5.33;;;;;15.36;100.00;101124.00;5016923;28;45390;-74
2023/03/12 08:41:32;;;;;;;;;13.33;8.33;;;;;15.56;100.00;101135.53;4983506;28;45357;-74
2023/03/12 08:43:57;;;;;;;;;11.67;7.00;;;;;15.70;100.00;101129.34;4985267;28;46500;-74
2023/03/12 08:46:22;;;;;;;;;7.00;6.00;;;;;15.99;100.00;101149.88;4984448;28;45205;-74
2023/03/12 08:48:47;;;;;;;;;13.67;8.33;;;;;15.90;100.00;101149.03;5017084;28;45574;-74
2023/03/12 08:51:13;;;;;;;;;7.67;4.00;;;;;15.86;100.00;101147.63;4984919;28;45240;-74
2023/03/12 08:53:38;;;;;;;;;14.00;7.33;;;;;15.95;100.00;101157.56;4985154;28;46304;-74
2023/03/12 08:56:05;;;;;;;;;9.00;6.00;;;;;16.16;100.00;101144.16;4984838;28;45438;-74
2023/03/12 08:58:30;;;;;;;;;7.00;5.33;;;;;15.84;100.00;101156.06;4980873;28;45708;-74
2023/03/12 09:00:56;;;;;;;;;16.00;6.33;;;;;15.99;100.00;101164.44;5016293;28;45279;-74
2023/03/12 09:03:23;;;;;;;;;10.00;7.00;;;;;16.04;100.00;101169.38;4984680;28;45415;-75
2023/03/12 09:05:49;;;;;;;;;14.00;6.33;;;;;15.73;100.00;101166.47;4998248;28;45601;-74
2023/03/12 09:08:16;;;;;;;;;10.00;5.33;;;;;16.02;100.00;101155.84;4984648;28;45325;-74
2023/03/12 09:10:47;;;;;;;;;15.67;6.00;;;;;16.20;100.00;101162.00;4996413;28;45643;-74
2023/03/12 09:13:13;;;;;;;;;11.67;10.33;;;;;16.13;100.00;101169.19;5016054;28;48431;-74
2023/03/12 09:15:38;;;;;;;;;5.67;4.33;;;;;16.30;100.00;101164.50;4984052;28;45462;-75
2023/03/12 09:18:04;;;;;;;;;12.67;5.33;;;;;16.29;100.00;101166.41;4985070;28;45390;-74
2023/03/12 09:20:29;;;;;;;;;7.67;5.00;;;;;16.65;100.00;101149.53;4990803;28;45526;-75
2023/03/12 09:22:54;;;;;;;;;5.00;4.00;;;;;17.31;100.00;101162.72;5016059;28;48134;-74
2023/03/12 09:25:22;;;;;;;;;7.00;6.00;;;;;17.28;100.00;101156.72;4984915;28;45367;-75
2023/03/12 09:27:47;;;;;;;;;10.67;5.33;;;;;17.40;100.00;101171.72;4984133;28;45252;-74
2023/03/12 09:30:16;;;;;;;;;7.00;5.00;;;;;17.22;100.00;101157.44;4984775;28;45198;-75
2023/03/12 09:32:43;;;;;;;;;14.33;6.00;;;;;16.93;100.00;101164.50;4983827;28;45537;-74
2023/03/12 09:35:09;;;;;;;;;7.33;5.00;;;;;17.26;100.00;101164.28;4983993;28;45285;-74
2023/03/12 09:37:34;;;;;;;;;8.33;3.00;;;;;17.02;100.00;101152.41;4981598;28;45259;-74
2023/03/12 09:40:01;;;;;;;;;10.00;5.00;;;;;17.46;100.00;101174.59;4990435;28;45349;-74
2023/03/12 09:42:38;;;;;;;;;8.00;4.33;;;;;17.38;100.00;101169.19;4983126;28;45531;-75
2023/03/12 09:45:06;;;;;;;;;5.00;5.00;;;;;17.44;100.00;101167.59;4982902;28;45353;-75
2023/03/12 09:47:36;;;;;;;;;9.33;7.00;;;;;17.86;100.00;101172.59;4983739;28;45327;-74
2023/03/12 09:50:20;;;;;;;;;6.33;4.33;;;;;17.90;100.00;101171.19;4984082;28;45281;-73
2023/03/12 09:52:50;;;;;;;;;8.67;5.33;;;;;18.14;100.00;101167.34;4997464;28;46775;-74
2023/03/12 09:55:22;;;;;;;;;10.33;5.33;;;;;18.36;100.00;101166.41;4983727;28;45533;-74
2023/03/12 09:57:50;;;;;;;;;9.67;5.33;;;;;18.43;100.00;101137.09;4981806;28;45446;-74
2023/03/12 10:00:17;;;;;;;;;6.67;6.00;;;;;18.69;100.00;101163.34;4983725;28;45511;-72
2023/03/12 10:03:07;;;;;;;;;7.67;5.33;;;;;18.66;100.00;101157.16;4983115;28;46190;-74
2023/03/12 10:05:45;;;;;;;;;6.33;3.00;;;;;17.46;100.00;101160.88;4979963;28;45454;-75
2023/03/12 10:08:16;;;;;;;;;7.67;5.67;;;;;17.92;100.00;101160.84;4983356;28;45473;-72
2023/03/12 10:10:53;;;;;;;;;6.00;6.00;;;;;17.92;100.00;101160.00;4998429;28;45336;-72
2023/03/12 10:13:47;;;;;;;;;8.67;3.00;;;;;17.87;100.00;101152.31;4981544;28;48821;-74
2023/03/12 10:16:53;;;;;;;;;4.00;2.00;;;;;17.12;100.00;101154.94;4988019;28;45471;-74
2023/03/12 10:19:43;;;;;;;;;9.67;5.00;;;;;16.82;100.00;101164.88;4980641;28;46332;-74
2023/03/12 10:22:36;;;;;;;;;6.67;5.00;;;;;17.49;100.00;101168.75;4983652;28;45513;-75
2023/03/12 10:25:16;;;;;;;;;6.67;4.00;;;;;17.84;100.00;101158.19;4983543;28;45493;-74
2023/03/12 10:27:42;;;;;;;;;3.67;0.00;;;;;18.14;100.00;101165.47;4982580;28;45410;-74
2023/03/12 10:30:29;;;;;;;;;6.00;6.00;;;;;18.18;100.00;101158.56;4983287;28;45246;-74
2023/03/12 10:32:58;;;;;;;;;7.00;4.67;;;;;18.07;100.00;101158.13;4983689;28;45544;-74
2023/03/12 10:35:29;;;;;;;;;10.67;7.00;;;;;17.74;100.00;101172.19;4983192;28;45487;-75
2023/03/12 10:38:01;;;;;;;;;6.33;4.00;;;;;17.50;100.00;101172.34;4981407;28;45389;-75
2023/03/12 10:40:33;;;;;;;;;10.00;6.00;;;;;17.30;100.00;101173.88;4981698;28;45439;-74
2023/03/12 10:42:59;;;;;;;;;6.67;3.00;;;;;17.66;100.00;101149.44;4994748;28;45510;-74
2023/03/12 10:45:42;;;;;;;;;4.00;4.00;;;;;17.69;100.00;101182.00;4979976;28;46641;-75
2023/03/12 10:48:10;;;;;;;;;5.00;3.67;;;;;17.50;100.00;101147.63;5010800;28;46135;-74
2023/03/12 10:50:38;;;;;;;;;6.33;4.33;;;;;17.61;100.00;101174.69;4981218;28;45257;-74
2023/03/12 10:53:21;;;;;;;;;5.00;4.00;;;;;18.02;100.00;101168.84;4983319;28;45438;-74
2023/03/12 10:55:58;;;;;;;;;15.00;7.33;;;;;17.61;100.00;101173.81;4973234;28;46623;-74
2023/03/12 10:58:29;;;;;;;;;3.33;2.33;;;;;17.44;100.00;101159.34;4980522;28;45375;-74
2023/03/12 11:00:57;;;;;;;;;8.33;6.00;;;;;17.62;100.00;101170.06;4981206;28;45336;-74
2023/03/12 11:03:22;;;;;;;;;7.67;3.00;;;;;18.05;100.00;101162.97;4981706;28;45584;-74
2023/03/12 11:05:51;;;;;;;;;8.00;5.00;;;;;18.20;100.00;101163.84;4980666;28;48096;-78
2023/03/12 11:08:22;;;;;;;;;8.00;5.00;;;;;17.98;100.00;101153.75;4982861;28;45260;-77
2023/03/12 11:10:47;;;;;;;;;8.33;7.00;;;;;17.79;100.00;101150.50;4982846;28;45320;-78
2023/03/12 11:13:32;;;;;;;;;26.67;24.00;;;;;18.29;100.00;101151.72;5015155;28;46892;-78